Grande Senegal — ICEU — position and weather

sailwx.info

Track history (hours):
 
Tides and Currents Weather Stations Pressure Air Temp Water Temp Dewpoint Dewpoint Depression Visibility Wind Speed Wind Dir Waves Ship Positions

Grande Senegal

Last reported at 2018-Feb-18 15:16 UTC. Time now 2018-Feb-18 22:25 UTC.
Position N 38°28' E 015°55'.

Length 210 m; draft 7.2 m.

Type: Cargo ship. MMSI: 247285500.

Date/timePositionNaut miles runAvg speedWind from/ knotsBaromVisibWave heightAir tempDewpointWater temp
2018-Feb-18 15:16N 38°28' E 015°55'2 5.7
2018-Feb-18 14:59N 38°27' E 015°54'3 6.0
2018-Feb-18 14:29N 38°27' E 015°50'715.5
2018-Feb-18 14:00N 38°25' E 015°41'714.9
2018-Feb-18 13:30N 38°23' E 015°32'714.7
2018-Feb-18 13:00N 38°22' E 015°22'714.5
2018-Feb-18 12:30N 38°20' E 015°13'814.9
2018-Feb-18 12:00N 38°19' E 015°04'714.8
2018-Feb-18 11:30N 38°19' E 014°55'914.8
2018-Feb-18 10:53N 38°19' E 014°43'615.0
2018-Feb-18 10:30N 38°20' E 014°36'914.8
2018-Feb-18 09:54N 38°21' E 014°24'615.0
2018-Feb-18 09:29N 38°21' E 014°16'715.2
2018-Feb-18 09:00N 38°21' E 014°07'715.2
2018-Feb-18 08:30N 38°22' E 013°57'815.1
2018-Feb-18 08:00N 38°23' E 013°48'815.1
2018-Feb-18 07:30N 38°23' E 013°38'714.9
2018-Feb-18 07:00N 38°24' E 013°29'714.5
2018-Feb-18 06:30N 38°24' E 013°20'714.4
2018-Feb-18 06:00N 38°23' E 013°10'714.6
2018-Feb-18 05:30N 38°23' E 013°01'714.5
2018-Feb-18 05:00N 38°22' E 012°52'714.5
2018-Feb-18 04:30N 38°21' E 012°43'715.0
2018-Feb-18 04:00N 38°20' E 012°33'50814.6
2018-Feb-16 17:12N 37°15' E 001°56'614.4
2018-Feb-16 16:49N 37°14' E 001°49'514.4
2018-Feb-16 16:29N 37°13' E 001°43'1614.5
2018-Feb-16 15:23N 37°09' E 001°24'614.7
2018-Feb-16 15:00N 37°08' E 001°17'815.4
2018-Feb-16 14:30N 37°07' E 001°08'815.5
2018-Feb-16 13:59N 37°05' E 000°58'715.2
2018-Feb-16 13:30N 37°04' E 000°48'715.0
2018-Feb-16 13:00N 37°03' E 000°39'1114.6
2018-Feb-16 12:15N 37°02' E 000°25'314.4
2018-Feb-16 12:00N 37°02' E 000°21'714.2
2018-Feb-16 11:30N 37°00' E 000°12'713.8
2018-Feb-16 11:01N 36°58' E 000°05'2414.8
2018-Feb-16 09:25N 36°47' W 000°22'614.9
2018-Feb-16 08:59N 36°45' W 000°29'714.8
2018-Feb-16 08:30N 36°42' W 000°37'714.9
2018-Feb-16 08:00N 36°38' W 000°45'21915.1
2018-Feb-15 17:27N 36°00' W 005°13'817.3
2018-Feb-15 17:00N 35°59' W 005°23'35915.2
2018-Feb-14 17:20N 31°49' W 010°34'514.0
2018-Feb-14 17:00N 31°46' W 010°38'6513.9
2018-Feb-14 12:21N 30°57' W 011°29'514.3
2018-Feb-14 12:00N 30°54' W 011°32'4414.1
2018-Feb-14 08:55N 30°21' W 012°06'714.1
2018-Feb-14 08:26N 30°16' W 012°12'3314.0
2018-Feb-14 06:04N 29°52' W 012°37'113.8
2018-Feb-14 06:00N 29°51' W 012°38'5113.8
2018-Feb-14 02:19N 29°07' W 013°08'414.3
2018-Feb-14 02:00N 29°03' W 013°10'2014.0
2018-Feb-14 00:36N 28°45' W 013°19'113.9
2018-Feb-14 00:30N 28°44' W 013°20'714.1
2018-Feb-13 23:58N 28°38' W 013°24'714.5
2018-Feb-13 23:30N 28°32' W 013°29'714.3
2018-Feb-13 23:00N 28°26' W 013°34'714.2
2018-Feb-13 22:29N 28°20' W 013°39'714.4
2018-Feb-13 22:00N 28°15' W 013°43'714.5
2018-Feb-13 21:29N 28°09' W 013°48'714.6
2018-Feb-13 21:00N 28°03' W 013°53'814.2
2018-Feb-13 20:27N 27°57' W 013°58'614.2
2018-Feb-13 20:00N 27°52' W 014°03'714.4
2018-Feb-13 19:30N 27°46' W 014°08'714.2
2018-Feb-13 19:00N 27°41' W 014°13'714.1
2018-Feb-13 18:30N 27°35' W 014°18'714.4
2018-Feb-13 18:00N 27°30' W 014°23'714.4
2018-Feb-13 17:31N 27°24' W 014°28'815.6
2018-Feb-13 17:01N 27°18' W 014°34'815.8
2018-Feb-13 16:31N 27°12' W 014°39'815.8
2018-Feb-13 16:01N 27°06' W 014°45'815.4
2018-Feb-13 15:31N 27°00' W 014°51'815.3
2018-Feb-13 15:00N 26°54' W 014°56'1113.4
2018-Feb-13 14:13N 26°45' W 015°02'  
2018-Feb-10 02:30N 10°04' W 017°12'713.6
2018-Feb-10 02:01N 09°60' W 017°06'713.5
2018-Feb-10 01:30N 09°56' W 017°01'713.7
2018-Feb-10 01:00N 09°51' W 016°56'713.5
2018-Feb-10 00:30N 09°47' W 016°50'2813.7
2018-Feb-09 22:29N 09°30' W 016°28'11713.8
2018-Feb-09 14:00N 08°15' W 014°58'3514.0
2018-Feb-09 11:30N 07°54' W 014°29'  
Track history (hours):
 
Tides and Currents Weather Stations Pressure Air Temp Water Temp Dewpoint Dewpoint Depression Visibility Wind Speed Wind Dir Waves Ship Positions

Grande Senegal

Last reported at 2018-Feb-18 15:16 UTC. Time now 2018-Feb-18 22:25 UTC.
Position N 38°28' E 015°55'.

Length 210 m; draft 7.2 m.

Type: Cargo ship. MMSI: 247285500.

Date/timePositionNaut miles runAvg speedWind from/ knotsBaromVisibWave heightAir tempDewpointWater temp
2018-Feb-18 15:16N 38°28' E 015°55'2 5.7
2018-Feb-18 14:59N 38°27' E 015°54'3 6.0
2018-Feb-18 14:29N 38°27' E 015°50'715.5
2018-Feb-18 14:00N 38°25' E 015°41'714.9
2018-Feb-18 13:30N 38°23' E 015°32'714.7
2018-Feb-18 13:00N 38°22' E 015°22'714.5
2018-Feb-18 12:30N 38°20' E 015°13'814.9
2018-Feb-18 12:00N 38°19' E 015°04'714.8
2018-Feb-18 11:30N 38°19' E 014°55'914.8
2018-Feb-18 10:53N 38°19' E 014°43'615.0
2018-Feb-18 10:30N 38°20' E 014°36'914.8
2018-Feb-18 09:54N 38°21' E 014°24'615.0
2018-Feb-18 09:29N 38°21' E 014°16'715.2
2018-Feb-18 09:00N 38°21' E 014°07'715.2
2018-Feb-18 08:30N 38°22' E 013°57'815.1
2018-Feb-18 08:00N 38°23' E 013°48'815.1
2018-Feb-18 07:30N 38°23' E 013°38'714.9
2018-Feb-18 07:00N 38°24' E 013°29'714.5
2018-Feb-18 06:30N 38°24' E 013°20'714.4
2018-Feb-18 06:00N 38°23' E 013°10'714.6
2018-Feb-18 05:30N 38°23' E 013°01'714.5
2018-Feb-18 05:00N 38°22' E 012°52'714.5
2018-Feb-18 04:30N 38°21' E 012°43'715.0
2018-Feb-18 04:00N 38°20' E 012°33'50814.6
2018-Feb-16 17:12N 37°15' E 001°56'614.4
2018-Feb-16 16:49N 37°14' E 001°49'514.4
2018-Feb-16 16:29N 37°13' E 001°43'1614.5
2018-Feb-16 15:23N 37°09' E 001°24'614.7
2018-Feb-16 15:00N 37°08' E 001°17'815.4
2018-Feb-16 14:30N 37°07' E 001°08'815.5
2018-Feb-16 13:59N 37°05' E 000°58'715.2
2018-Feb-16 13:30N 37°04' E 000°48'715.0
2018-Feb-16 13:00N 37°03' E 000°39'1114.6
2018-Feb-16 12:15N 37°02' E 000°25'314.4
2018-Feb-16 12:00N 37°02' E 000°21'714.2
2018-Feb-16 11:30N 37°00' E 000°12'713.8
2018-Feb-16 11:01N 36°58' E 000°05'2414.8
2018-Feb-16 09:25N 36°47' W 000°22'614.9
2018-Feb-16 08:59N 36°45' W 000°29'714.8
2018-Feb-16 08:30N 36°42' W 000°37'714.9
2018-Feb-16 08:00N 36°38' W 000°45'21915.1
2018-Feb-15 17:27N 36°00' W 005°13'817.3
2018-Feb-15 17:00N 35°59' W 005°23'35915.2
2018-Feb-14 17:20N 31°49' W 010°34'514.0
2018-Feb-14 17:00N 31°46' W 010°38'6513.9
2018-Feb-14 12:21N 30°57' W 011°29'514.3
2018-Feb-14 12:00N 30°54' W 011°32'4414.1
2018-Feb-14 08:55N 30°21' W 012°06'714.1
2018-Feb-14 08:26N 30°16' W 012°12'3314.0
2018-Feb-14 06:04N 29°52' W 012°37'113.8
2018-Feb-14 06:00N 29°51' W 012°38'5113.8
2018-Feb-14 02:19N 29°07' W 013°08'414.3
2018-Feb-14 02:00N 29°03' W 013°10'2014.0
2018-Feb-14 00:36N 28°45' W 013°19'113.9
2018-Feb-14 00:30N 28°44' W 013°20'714.1
2018-Feb-13 23:58N 28°38' W 013°24'714.5
2018-Feb-13 23:30N 28°32' W 013°29'714.3
2018-Feb-13 23:00N 28°26' W 013°34'714.2
2018-Feb-13 22:29N 28°20' W 013°39'714.4
2018-Feb-13 22:00N 28°15' W 013°43'714.5
2018-Feb-13 21:29N 28°09' W 013°48'714.6
2018-Feb-13 21:00N 28°03' W 013°53'814.2
2018-Feb-13 20:27N 27°57' W 013°58'614.2
2018-Feb-13 20:00N 27°52' W 014°03'714.4
2018-Feb-13 19:30N 27°46' W 014°08'714.2
2018-Feb-13 19:00N 27°41' W 014°13'714.1
2018-Feb-13 18:30N 27°35' W 014°18'714.4
2018-Feb-13 18:00N 27°30' W 014°23'714.4
2018-Feb-13 17:31N 27°24' W 014°28'815.6
2018-Feb-13 17:01N 27°18' W 014°34'815.8
2018-Feb-13 16:31N 27°12' W 014°39'815.8
2018-Feb-13 16:01N 27°06' W 014°45'815.4
2018-Feb-13 15:31N 27°00' W 014°51'815.3
2018-Feb-13 15:00N 26°54' W 014°56'1113.4
2018-Feb-13 14:13N 26°45' W 015°02'  
2018-Feb-10 02:30N 10°04' W 017°12'713.6
2018-Feb-10 02:01N 09°60' W 017°06'713.5
2018-Feb-10 01:30N 09°56' W 017°01'713.7
2018-Feb-10 01:00N 09°51' W 016°56'713.5
2018-Feb-10 00:30N 09°47' W 016°50'2813.7
2018-Feb-09 22:29N 09°30' W 016°28'11713.8
2018-Feb-09 14:00N 08°15' W 014°58'3514.0
2018-Feb-09 11:30N 07°54' W 014°29'  

Dump ship's entire track history